createdAt,value
2022-10-15T00:00:51.919Z,15.50
2022-10-15T00:03:18.519Z,15.50
2022-10-15T00:05:45.205Z,15.40
2022-10-15T00:08:12.203Z,15.50
2022-10-15T00:10:38.996Z,15.60
2022-10-15T00:13:06.453Z,15.60
2022-10-15T00:15:33.270Z,15.70
2022-10-15T00:17:59.899Z,15.70
2022-10-15T00:20:26.569Z,15.70
2022-10-15T00:22:53.180Z,15.70
2022-10-15T00:25:19.799Z,15.70
2022-10-15T00:27:46.519Z,15.70
2022-10-15T00:30:13.500Z,15.70
2022-10-15T00:32:40.242Z,15.70
2022-10-15T00:35:07.233Z,15.70
2022-10-15T00:37:33.908Z,15.80
2022-10-15T00:40:00.701Z,15.80
2022-10-15T00:42:27.378Z,15.90
2022-10-15T00:44:58.996Z,16.00
2022-10-15T00:47:35.230Z,16.00
2022-10-15T00:50:07.307Z,16.00
2022-10-15T00:52:57.132Z,16.10
2022-10-15T00:55:36.401Z,16.10
2022-10-15T00:58:09.986Z,16.10
2022-10-15T01:00:36.673Z,16.20
2022-10-15T01:03:03.405Z,16.20
2022-10-15T01:05:30.821Z,16.20
2022-10-15T01:07:57.512Z,16.30
2022-10-15T01:10:32.585Z,16.30
2022-10-15T01:13:38.327Z,16.40
2022-10-15T01:16:19.665Z,16.40
2022-10-15T01:18:59.435Z,16.40
2022-10-15T01:21:38.010Z,16.40
2022-10-15T01:24:35.536Z,16.40
2022-10-15T01:27:35.139Z,16.40
2022-10-15T01:30:19.784Z,16.40
2022-10-15T01:33:11.415Z,16.30
2022-10-15T01:35:46.432Z,16.30
2022-10-15T01:38:22.072Z,16.30
2022-10-15T01:40:57.415Z,16.40
2022-10-15T01:43:37.079Z,16.40
2022-10-15T01:46:10.846Z,16.40
2022-10-15T01:48:38.739Z,16.50
2022-10-15T01:51:06.834Z,16.50
2022-10-15T01:53:35.176Z,16.50
2022-10-15T01:56:11.139Z,16.50
2022-10-15T01:58:43.375Z,16.60
2022-10-15T02:01:10.386Z,16.60
2022-10-15T02:03:52.165Z,16.70
2022-10-15T02:06:25.238Z,16.60
2022-10-15T02:09:13.498Z,16.70
2022-10-15T02:12:08.862Z,16.70
2022-10-15T02:14:47.874Z,16.70
2022-10-15T02:17:16.582Z,16.70
2022-10-15T02:22:47.942Z,16.70
2022-10-15T02:25:19.307Z,16.70
2022-10-15T02:27:48.966Z,16.80
2022-10-15T02:30:16.904Z,16.80
2022-10-15T02:32:46.968Z,16.70
2022-10-15T02:35:14.218Z,16.70
2022-10-15T02:37:46.157Z,16.80
2022-10-15T02:40:13.108Z,16.80
2022-10-15T02:42:40.279Z,16.80
2022-10-15T02:45:07.675Z,16.70
2022-10-15T02:47:34.503Z,16.70
2022-10-15T02:50:01.130Z,16.70
2022-10-15T02:52:27.758Z,16.80
2022-10-15T02:54:54.394Z,16.80
2022-10-15T02:57:21.207Z,16.80
2022-10-15T02:59:47.959Z,16.70
2022-10-15T03:02:16.902Z,16.80
2022-10-15T03:04:45.996Z,16.80
2022-10-15T03:07:12.749Z,16.70
2022-10-15T03:09:39.397Z,16.80
2022-10-15T03:12:06.455Z,16.70
2022-10-15T03:14:33.109Z,16.70
2022-10-15T03:16:59.737Z,16.60
2022-10-15T03:19:26.500Z,16.60
2022-10-15T03:21:53.114Z,16.60
2022-10-15T03:24:19.748Z,16.60
2022-10-15T03:26:46.358Z,16.50
2022-10-15T03:29:13.070Z,16.50
2022-10-15T03:31:39.743Z,16.50
2022-10-15T03:34:06.426Z,16.50
2022-10-15T03:36:33.116Z,16.50
2022-10-15T03:38:59.772Z,16.40
2022-10-15T03:41:26.627Z,16.50
2022-10-15T03:43:53.271Z,16.50
2022-10-15T03:46:19.887Z,16.50
2022-10-15T03:48:50.559Z,16.50
2022-10-15T03:51:20.508Z,16.50
2022-10-15T03:53:51.026Z,16.50
2022-10-15T03:56:17.671Z,16.50
2022-10-15T03:58:44.323Z,16.50
2022-10-15T04:01:13.058Z,16.50
2022-10-15T04:03:39.952Z,16.60
2022-10-15T04:06:07.468Z,16.60
2022-10-15T04:08:34.231Z,16.60
2022-10-15T04:11:00.890Z,16.60
2022-10-15T04:13:28.901Z,16.60
2022-10-15T04:15:55.808Z,16.60
2022-10-15T04:18:22.712Z,16.60
2022-10-15T04:20:49.602Z,16.70
2022-10-15T04:23:17.498Z,16.60
2022-10-15T04:25:46.023Z,16.60
2022-10-15T04:28:12.648Z,16.50
2022-10-15T04:30:39.284Z,16.50
2022-10-15T04:33:05.897Z,16.50
2022-10-15T04:35:32.533Z,16.50
2022-10-15T04:37:59.650Z,16.50
2022-10-15T04:40:26.570Z,16.50
2022-10-15T04:42:53.191Z,16.50
2022-10-15T04:45:20.031Z,16.50
2022-10-15T04:47:46.761Z,16.50
2022-10-15T04:50:13.425Z,16.50
2022-10-15T04:52:40.374Z,16.50
2022-10-15T04:55:07.371Z,16.40
2022-10-15T04:57:33.989Z,16.50
2022-10-15T05:00:00.708Z,16.50
2022-10-15T05:02:27.410Z,16.50
2022-10-15T05:04:54.147Z,16.50
2022-10-15T05:07:21.029Z,16.30
2022-10-15T05:09:47.869Z,16.50
2022-10-15T05:12:14.721Z,16.50
2022-10-15T05:14:41.865Z,16.50
2022-10-15T05:17:08.537Z,16.50
2022-10-15T05:19:35.147Z,16.50
2022-10-15T05:22:01.880Z,16.50
2022-10-15T05:24:28.491Z,16.50
2022-10-15T05:26:55.123Z,16.40
2022-10-15T05:29:21.808Z,16.40
2022-10-15T05:31:50.549Z,16.40
2022-10-15T05:34:17.302Z,16.20
2022-10-15T05:36:43.926Z,16.40
2022-10-15T05:39:12.139Z,16.40
2022-10-15T05:41:39.023Z,16.30
2022-10-15T05:44:05.845Z,16.30
2022-10-15T05:46:32.518Z,16.30
2022-10-15T05:48:59.206Z,16.30
2022-10-15T05:51:27.416Z,16.30
2022-10-15T05:53:55.739Z,16.30
2022-10-15T05:56:22.667Z,16.20
2022-10-15T05:58:49.850Z,16.20
2022-10-15T06:01:16.473Z,16.20
2022-10-15T06:03:43.490Z,16.10
2022-10-15T06:06:32.381Z,16.10
2022-10-15T06:08:59.202Z,16.10
2022-10-15T06:11:25.850Z,16.10
2022-10-15T06:13:52.539Z,16.00
2022-10-15T06:16:22.617Z,16.00
2022-10-15T06:18:52.443Z,16.00
2022-10-15T06:21:19.216Z,16.10
2022-10-15T06:23:45.817Z,16.10
2022-10-15T06:26:12.615Z,16.10
2022-10-15T06:28:39.978Z,16.10
2022-10-15T06:31:07.360Z,16.00
2022-10-15T06:33:34.534Z,16.00
2022-10-15T06:36:06.799Z,15.90
2022-10-15T06:38:35.107Z,15.90
2022-10-15T06:41:05.517Z,16.00
2022-10-15T06:43:34.810Z,16.00
2022-10-15T06:46:03.756Z,16.10
2022-10-15T06:48:30.410Z,16.00
2022-10-15T06:50:59.532Z,16.00
2022-10-15T06:53:26.530Z,16.10
2022-10-15T06:55:57.874Z,16.10
2022-10-15T06:58:24.557Z,16.00
2022-10-15T07:00:51.233Z,16.10
2022-10-15T07:03:17.866Z,16.10
2022-10-15T07:05:44.531Z,16.10
2022-10-15T07:08:15.464Z,16.10
2022-10-15T07:10:45.729Z,16.10
2022-10-15T07:13:12.340Z,16.10
2022-10-15T07:15:39.005Z,16.10
2022-10-15T07:18:05.633Z,16.10
2022-10-15T07:20:32.555Z,16.10
2022-10-15T07:23:01.203Z,16.10
2022-10-15T07:25:28.588Z,16.20
2022-10-15T07:27:56.109Z,16.30
2022-10-15T07:30:24.075Z,16.20
2022-10-15T07:32:50.701Z,16.30
2022-10-15T07:35:17.491Z,16.30
2022-10-15T07:37:44.179Z,16.30
2022-10-15T07:40:11.553Z,16.40
2022-10-15T07:42:38.428Z,16.40
2022-10-15T07:45:05.513Z,16.40
2022-10-15T07:47:32.288Z,16.50
2022-10-15T07:49:58.902Z,16.60
2022-10-15T07:52:25.912Z,16.60
2022-10-15T07:54:52.782Z,16.70
2022-10-15T07:57:19.416Z,16.80
2022-10-15T07:59:46.043Z,17.00
2022-10-15T08:02:19.179Z,17.10
2022-10-15T08:04:45.823Z,17.10
2022-10-15T08:07:12.611Z,17.20
2022-10-15T08:09:39.358Z,17.20
2022-10-15T08:12:06.964Z,17.20
2022-10-15T08:14:35.012Z,17.20
2022-10-15T08:17:05.239Z,17.20
2022-10-15T08:19:32.055Z,17.10
2022-10-15T08:21:58.792Z,17.10
2022-10-15T08:24:25.537Z,17.00
2022-10-15T08:26:52.303Z,17.10
2022-10-15T08:29:18.934Z,17.10
2022-10-15T08:31:45.607Z,17.10
2022-10-15T08:34:12.285Z,17.10
2022-10-15T08:36:38.913Z,17.10
2022-10-15T08:39:07.253Z,17.10
2022-10-15T08:41:49.850Z,17.20
2022-10-15T08:44:24.871Z,17.40
2022-10-15T08:46:59.209Z,17.40
2022-10-15T08:49:25.830Z,17.50
2022-10-15T08:51:58.749Z,17.60
2022-10-15T08:54:25.444Z,17.50
2022-10-15T08:57:03.327Z,17.60
2022-10-15T08:59:51.480Z,17.70
2022-10-15T09:02:29.114Z,17.80
2022-10-15T09:05:22.329Z,17.80
2022-10-15T09:08:01.529Z,17.90
2022-10-15T09:10:43.286Z,18.00
2022-10-15T09:13:45.027Z,18.00
2022-10-15T09:16:18.006Z,18.10
2022-10-15T09:18:51.442Z,18.10
2022-10-15T09:21:20.201Z,18.20
2022-10-15T09:23:47.194Z,18.20
2022-10-15T09:26:31.314Z,18.40
2022-10-15T09:29:05.660Z,18.60
2022-10-15T09:31:43.600Z,18.60
2022-10-15T09:34:21.750Z,18.70
2022-10-15T09:37:07.304Z,18.70
2022-10-15T09:40:15.950Z,18.90
2022-10-15T09:42:44.671Z,18.90
2022-10-15T09:45:13.993Z,18.90
2022-10-15T09:47:42.570Z,18.90
2022-10-15T09:50:13.079Z,18.90
2022-10-15T09:53:05.942Z,18.90
2022-10-15T09:55:49.526Z,18.90
2022-10-15T09:58:23.520Z,18.70
2022-10-15T10:01:06.023Z,18.60
2022-10-15T10:03:34.813Z,18.50
2022-10-15T10:06:10.582Z,18.50
2022-10-15T10:11:22.558Z,18.30
2022-10-15T10:13:49.137Z,18.30
2022-10-15T10:16:18.297Z,18.20
2022-10-15T10:19:01.430Z,18.20
2022-10-15T10:21:37.266Z,18.20
2022-10-15T10:24:34.411Z,18.10
2022-10-15T10:27:02.681Z,18.20
2022-10-15T10:29:34.528Z,18.20
2022-10-15T10:32:12.213Z,18.30
2022-10-15T10:34:38.963Z,18.30
2022-10-15T10:37:07.667Z,18.40
2022-10-15T10:39:36.514Z,18.40
2022-10-15T10:42:17.075Z,18.40
2022-10-15T10:44:47.061Z,18.30
2022-10-15T10:47:26.697Z,18.40
2022-10-15T10:49:56.170Z,18.30
2022-10-15T10:52:24.613Z,18.20
2022-10-15T10:55:07.732Z,18.20
2022-10-15T10:57:57.089Z,18.40
2022-10-15T11:00:43.413Z,18.30
2022-10-15T11:03:38.484Z,18.20
2022-10-15T11:06:31.847Z,18.30
2022-10-15T11:09:45.629Z,18.40
2022-10-15T11:12:28.453Z,18.20
2022-10-15T11:15:05.176Z,18.40
2022-10-15T11:18:06.083Z,18.60
2022-10-15T11:21:00.774Z,18.90
2022-10-15T11:23:42.782Z,18.80
2022-10-15T11:26:59.452Z,18.60
2022-10-15T11:30:31.883Z,18.40
2022-10-15T11:33:36.894Z,18.40
2022-10-15T11:36:31.649Z,18.30
2022-10-15T11:39:32.411Z,18.20
2022-10-15T11:42:30.400Z,18.20
2022-10-15T11:45:06.243Z,18.20
2022-10-15T11:47:38.887Z,18.20
2022-10-15T11:50:22.019Z,18.80
2022-10-15T11:53:13.668Z,18.20
2022-10-15T11:56:09.975Z,18.20
2022-10-15T12:01:38.629Z,18.20
2022-10-15T12:04:31.827Z,18.30
2022-10-15T12:07:01.873Z,18.40
2022-10-15T12:09:34.014Z,18.40
2022-10-15T12:12:10.578Z,18.30
2022-10-15T12:15:02.425Z,18.20
2022-10-15T12:17:59.230Z,18.30
2022-10-15T12:20:27.135Z,18.30
2022-10-15T12:22:59.919Z,18.30
2022-10-15T12:25:35.627Z,18.30
2022-10-15T12:28:23.430Z,18.40
2022-10-15T12:31:00.100Z,18.30
2022-10-15T12:34:01.643Z,18.50
2022-10-15T12:36:31.000Z,18.40
2022-10-15T12:39:16.024Z,18.40
2022-10-15T12:41:53.558Z,18.40
2022-10-15T12:44:30.299Z,18.30
2022-10-15T12:46:58.065Z,18.40
2022-10-15T12:49:45.817Z,18.40
2022-10-15T12:52:50.897Z,18.30
2022-10-15T12:55:38.816Z,18.40
2022-10-15T12:58:37.801Z,18.40
2022-10-15T13:01:46.938Z,18.50
2022-10-15T13:04:13.557Z,18.50
2022-10-15T13:06:40.360Z,18.60
2022-10-15T13:09:10.115Z,18.60
2022-10-15T13:11:48.015Z,18.70
2022-10-15T13:14:33.630Z,18.70
2022-10-15T13:17:04.693Z,18.80
2022-10-15T13:19:37.114Z,18.80
2022-10-15T13:22:06.644Z,18.90
2022-10-15T13:24:43.266Z,18.90
2022-10-15T13:27:34.424Z,19.00
2022-10-15T13:30:02.807Z,19.00
2022-10-15T13:32:32.387Z,19.00
2022-10-15T13:35:00.944Z,19.00
2022-10-15T13:37:38.276Z,19.00
2022-10-15T13:40:08.028Z,19.00
2022-10-15T13:42:35.432Z,19.10
2022-10-15T13:45:13.880Z,19.00
2022-10-15T13:47:42.724Z,19.00
2022-10-15T13:50:22.446Z,19.10
2022-10-15T13:52:58.006Z,19.20
2022-10-15T13:55:31.118Z,19.20
2022-10-15T13:58:27.569Z,19.20
2022-10-15T14:01:16.379Z,19.20
2022-10-15T14:04:00.402Z,19.10
2022-10-15T14:06:32.993Z,19.20
2022-10-15T14:09:12.190Z,19.20
2022-10-15T14:11:39.943Z,19.40
2022-10-15T14:14:36.705Z,19.40
2022-10-15T14:17:09.463Z,19.30
2022-10-15T14:19:38.855Z,19.30
2022-10-15T14:22:06.067Z,19.30
2022-10-15T14:24:41.812Z,19.40
2022-10-15T14:27:15.702Z,19.40
2022-10-15T14:29:44.793Z,19.50
2022-10-15T14:32:45.113Z,19.60
2022-10-15T14:35:34.172Z,19.70
2022-10-15T14:38:04.021Z,20.10
2022-10-15T14:40:31.212Z,20.30
2022-10-15T14:43:05.516Z,20.60
2022-10-15T14:45:58.397Z,20.70
2022-10-15T14:48:31.246Z,20.80
2022-10-15T14:50:59.766Z,20.80
2022-10-15T14:53:36.611Z,20.80
2022-10-15T14:56:25.969Z,21.00
2022-10-15T14:58:56.675Z,21.40
2022-10-15T15:01:24.491Z,21.80
2022-10-15T15:03:53.471Z,22.40
2022-10-15T15:06:20.169Z,22.80
2022-10-15T15:08:46.834Z,23.10
2022-10-15T15:11:18.699Z,22.70
2022-10-15T15:13:46.112Z,22.40
2022-10-15T15:16:14.845Z,22.30
2022-10-15T15:18:46.289Z,21.90
2022-10-15T15:21:17.143Z,21.50
2022-10-15T15:23:44.250Z,21.20
2022-10-15T15:26:11.002Z,20.90
2022-10-15T15:28:37.722Z,20.60
2022-10-15T15:31:08.058Z,20.40
2022-10-15T15:33:35.198Z,20.30
2022-10-15T15:36:05.180Z,20.20
2022-10-15T15:38:31.945Z,20.10
2022-10-15T15:41:04.763Z,19.90
2022-10-15T15:43:31.508Z,19.80
2022-10-15T15:45:58.140Z,19.70
2022-10-15T15:48:24.814Z,19.70
2022-10-15T15:50:52.139Z,19.60
2022-10-15T15:53:18.834Z,19.50
2022-10-15T15:55:45.508Z,19.40
2022-10-15T15:58:12.144Z,19.30
2022-10-15T16:00:38.872Z,19.20
2022-10-15T16:03:05.547Z,19.10
2022-10-15T16:05:32.157Z,19.00
2022-10-15T16:07:58.800Z,19.00
2022-10-15T16:10:25.530Z,18.90
2022-10-15T16:12:52.633Z,18.70
2022-10-15T16:15:19.265Z,18.70
2022-10-15T16:17:45.897Z,18.60
2022-10-15T16:20:12.801Z,18.50
2022-10-15T16:22:39.833Z,18.50
2022-10-15T16:25:07.166Z,18.40
2022-10-15T16:27:34.461Z,18.30
2022-10-15T16:30:01.970Z,18.10
2022-10-15T16:32:28.618Z,18.10
2022-10-15T16:34:55.266Z,18.10
2022-10-15T16:37:22.047Z,18.00
2022-10-15T16:39:48.795Z,18.00
2022-10-15T16:42:15.434Z,17.90
2022-10-15T16:44:42.061Z,17.90
2022-10-15T16:47:08.750Z,17.90
2022-10-15T16:49:35.408Z,17.80
2022-10-15T16:52:02.196Z,17.70
2022-10-15T16:54:28.836Z,17.70
2022-10-15T16:56:55.501Z,17.70
2022-10-15T16:59:24.138Z,17.70
2022-10-15T17:01:50.866Z,17.60
2022-10-15T17:04:17.960Z,17.70
2022-10-15T17:06:44.744Z,17.60
2022-10-15T17:09:11.472Z,17.70
2022-10-15T17:11:41.072Z,17.60
2022-10-15T17:14:12.762Z,17.60
2022-10-15T17:16:47.714Z,17.60
2022-10-15T17:19:16.882Z,17.50
2022-10-15T17:21:46.955Z,17.50
2022-10-15T17:24:15.938Z,17.40
2022-10-15T17:26:43.969Z,17.40
2022-10-15T17:29:18.546Z,17.40
2022-10-15T17:31:46.453Z,17.40
2022-10-15T17:34:13.336Z,17.50
2022-10-15T17:36:45.181Z,17.40
2022-10-15T17:39:15.349Z,17.40
2022-10-15T17:41:42.239Z,17.40
2022-10-15T17:44:11.117Z,17.40
2022-10-15T17:46:38.713Z,17.40
2022-10-15T17:49:05.565Z,17.40
2022-10-15T17:51:33.131Z,17.40
2022-10-15T17:54:00.374Z,17.40
2022-10-15T17:56:29.729Z,17.40
2022-10-15T17:58:57.090Z,17.50
2022-10-15T18:01:33.840Z,17.50
2022-10-15T18:04:13.193Z,17.50
2022-10-15T18:06:44.075Z,18.40
2022-10-15T18:09:10.727Z,17.50
2022-10-15T18:11:37.634Z,17.50
2022-10-15T18:14:04.287Z,17.50
2022-10-15T18:16:32.093Z,17.50
2022-10-15T18:18:58.730Z,17.50
2022-10-15T18:21:26.308Z,17.60
2022-10-15T18:23:54.779Z,17.60
2022-10-15T18:26:22.377Z,18.20
2022-10-15T18:28:50.914Z,17.60
2022-10-15T18:31:18.417Z,17.50
2022-10-15T18:33:48.072Z,17.50
2022-10-15T18:36:20.279Z,17.50
2022-10-15T18:38:47.093Z,17.50
2022-10-15T18:41:26.168Z,17.60
2022-10-15T18:43:58.764Z,17.60
2022-10-15T18:46:27.484Z,17.50
2022-10-15T18:48:54.722Z,17.60
2022-10-15T18:51:21.717Z,17.60
2022-10-15T18:53:48.724Z,17.60
2022-10-15T18:56:15.415Z,17.50
2022-10-15T18:58:45.566Z,17.60
2022-10-15T19:01:13.894Z,17.60
2022-10-15T19:03:40.978Z,17.60
2022-10-15T19:06:07.708Z,17.60
2022-10-15T19:08:34.358Z,17.70
2022-10-15T19:11:06.480Z,17.70
2022-10-15T19:13:33.115Z,17.60
2022-10-15T19:16:04.437Z,17.60
2022-10-15T19:18:31.848Z,17.60
2022-10-15T19:20:58.771Z,17.50
2022-10-15T19:23:25.436Z,17.50
2022-10-15T19:25:52.116Z,17.40
2022-10-15T19:28:18.813Z,17.40
2022-10-15T19:30:57.638Z,17.40
2022-10-15T19:33:25.781Z,17.30
2022-10-15T19:35:52.600Z,17.40
2022-10-15T19:38:19.248Z,17.30
2022-10-15T19:40:48.773Z,17.20
2022-10-15T19:43:18.574Z,17.20
2022-10-15T19:45:46.202Z,17.20
2022-10-15T19:48:14.913Z,17.10
2022-10-15T19:50:43.054Z,17.20
2022-10-15T19:53:11.531Z,17.20
2022-10-15T19:55:39.610Z,17.30
2022-10-15T19:58:07.093Z,17.30
2022-10-15T20:00:34.682Z,17.30
2022-10-15T20:03:01.741Z,17.30
2022-10-15T20:05:28.459Z,17.30
2022-10-15T20:07:55.099Z,17.30
2022-10-15T20:10:25.764Z,17.40
2022-10-15T20:12:53.277Z,17.30
2022-10-15T20:15:20.345Z,17.40
2022-10-15T20:17:47.941Z,17.30
2022-10-15T20:20:15.001Z,17.30
2022-10-15T20:22:41.826Z,17.30
2022-10-15T20:25:08.886Z,17.40
2022-10-15T20:27:35.551Z,17.40
2022-10-15T20:30:02.216Z,17.40
2022-10-15T20:32:36.131Z,17.40
2022-10-15T20:35:04.923Z,17.30
2022-10-15T20:37:31.591Z,17.30
2022-10-15T20:39:59.779Z,17.40
2022-10-15T20:42:27.242Z,17.30
2022-10-15T20:44:54.139Z,17.30
2022-10-15T20:47:21.400Z,17.20
2022-10-15T20:49:52.833Z,17.20
2022-10-15T20:52:20.534Z,17.10
2022-10-15T20:54:47.426Z,17.00
2022-10-15T20:57:14.153Z,17.10
2022-10-15T20:59:40.784Z,17.00
2022-10-15T21:02:07.392Z,17.00
2022-10-15T21:04:34.084Z,17.00
2022-10-15T21:07:00.715Z,17.00
2022-10-15T21:09:27.351Z,16.90
2022-10-15T21:11:54.019Z,18.00
2022-10-15T21:14:20.711Z,16.90
2022-10-15T21:16:47.372Z,16.90
2022-10-15T21:19:14.159Z,16.80
2022-10-15T21:21:41.005Z,16.70
2022-10-15T21:24:07.640Z,16.60
2022-10-15T21:26:34.274Z,16.60
2022-10-15T21:29:00.926Z,16.50
2022-10-15T21:31:28.045Z,16.50
2022-10-15T21:33:55.398Z,16.50
2022-10-15T21:36:27.603Z,16.50
2022-10-15T21:38:59.374Z,16.40
2022-10-15T21:41:28.373Z,16.40
2022-10-15T21:43:55.027Z,16.40
2022-10-15T21:46:21.816Z,16.40
2022-10-15T21:48:48.719Z,16.40
2022-10-15T21:51:24.014Z,16.40
2022-10-15T21:53:50.826Z,16.40
2022-10-15T21:56:17.704Z,16.40
2022-10-15T21:58:44.712Z,16.40
2022-10-15T22:01:26.184Z,16.50
2022-10-15T22:03:57.763Z,16.50
2022-10-15T22:06:24.419Z,16.50
2022-10-15T22:08:51.184Z,16.50
2022-10-15T22:11:23.841Z,16.50
2022-10-15T22:13:53.598Z,16.50
2022-10-15T22:16:23.400Z,16.50
2022-10-15T22:18:50.285Z,16.50
2022-10-15T22:21:18.869Z,16.60
2022-10-15T22:23:48.172Z,16.60
2022-10-15T22:26:16.402Z,16.60
2022-10-15T22:28:43.469Z,16.50
2022-10-15T22:31:11.891Z,16.50
2022-10-15T22:33:39.175Z,16.60
2022-10-15T22:36:13.061Z,16.50
2022-10-15T22:38:40.900Z,16.50
2022-10-15T22:41:09.642Z,16.50
2022-10-15T22:43:37.192Z,16.50
2022-10-15T22:46:04.875Z,16.50
2022-10-15T22:48:39.665Z,16.60
2022-10-15T22:51:09.682Z,16.50
2022-10-15T22:53:36.327Z,16.50
2022-10-15T22:56:06.074Z,16.50
2022-10-15T22:58:34.305Z,16.50
2022-10-15T23:01:16.297Z,16.50
2022-10-15T23:03:46.253Z,16.40
2022-10-15T23:06:14.077Z,16.50
2022-10-15T23:08:41.426Z,16.40
2022-10-15T23:11:13.616Z,16.40
2022-10-15T23:13:41.106Z,16.40
2022-10-15T23:16:19.486Z,16.50
2022-10-15T23:18:47.559Z,16.40
2022-10-15T23:21:17.500Z,16.40
2022-10-15T23:23:45.270Z,16.40
2022-10-15T23:26:14.678Z,16.40
2022-10-15T23:28:42.586Z,16.40
2022-10-15T23:31:16.673Z,16.40
2022-10-15T23:33:43.507Z,16.20
2022-10-15T23:36:10.177Z,16.40
2022-10-15T23:38:36.822Z,16.40
2022-10-15T23:41:08.331Z,16.50
2022-10-15T23:43:34.946Z,16.30
2022-10-15T23:46:01.904Z,16.30
2022-10-15T23:48:29.264Z,16.40
2022-10-15T23:51:00.803Z,16.40
2022-10-15T23:53:33.092Z,16.50
2022-10-15T23:56:02.538Z,16.50
2022-10-15T23:58:29.498Z,16.50
